Time;durP1;ratioP1;P1;durP2;ratioP2;P2;SDS_P1;SDS_P2;PMS_P1;PMS_P2;Temp;Humidity;BMP_temperature;BMP_pressure;BME280_temperature;BME280_humidity;BME280_pressure;Samples;Min_cycle;Max_cycle;Signal;HPM_P1;HPM_P2
2021/07/26 00:02:09;;;;;;;26.77;23.87;;;20.00;99.90;;;;;;5056874;28;20507;-87
2021/07/26 00:04:40;;;;;;;27.67;23.03;;;19.90;99.90;;;;;;5056977;28;20393;-87
2021/07/26 00:07:08;;;;;;;28.00;23.07;;;20.00;99.90;;;;;;5056367;28;20394;-87
2021/07/26 00:09:37;;;;;;;26.70;23.13;;;20.00;99.90;;;;;;5068144;28;20449;-86
2021/07/26 00:12:07;;;;;;;28.60;22.17;;;20.10;99.90;;;;;;5074107;28;20417;-86
2021/07/26 00:14:35;;;;;;;24.27;21.87;;;20.10;99.90;;;;;;5075444;28;20474;-87
2021/07/26 00:17:04;;;;;;;26.93;23.13;;;20.10;99.90;;;;;;5043509;28;20530;-89
2021/07/26 00:19:34;;;;;;;22.50;19.20;;;20.10;99.90;;;;;;5055225;28;20985;-87
2021/07/26 00:22:02;;;;;;;21.63;19.43;;;20.10;99.90;;;;;;5053961;28;20433;-87
2021/07/26 00:24:30;;;;;;;26.03;21.10;;;20.10;99.90;;;;;;5055928;28;20900;-87
2021/07/26 00:26:58;;;;;;;33.23;22.23;;;20.20;99.90;;;;;;5037423;28;20439;-87
2021/07/26 00:29:26;;;;;;;22.83;20.43;;;20.20;99.90;;;;;;5055337;28;20465;-86
2021/07/26 00:31:55;;;;;;;29.53;25.13;;;20.20;99.90;;;;;;5036706;28;20831;-87
2021/07/26 00:34:25;;;;;;;29.23;23.70;;;20.20;99.90;;;;;;5055168;28;20923;-87
2021/07/26 00:36:56;;;;;;;27.70;21.80;;;20.20;99.90;;;;;;5053503;28;20946;-87
2021/07/26 00:39:26;;;;;;;28.23;24.63;;;20.20;99.90;;;;;;5036952;28;20841;-87
2021/07/26 00:41:55;;;;;;;29.00;24.37;;;20.20;99.90;;;;;;5054890;28;20423;-87
2021/07/26 00:44:25;;;;;;;24.93;22.03;;;20.30;99.90;;;;;;5056000;28;20406;-87
2021/07/26 00:46:54;;;;;;;27.23;24.33;;;20.30;99.90;;;;;;5058362;28;20552;-87
2021/07/26 00:49:24;;;;;;;24.30;20.87;;;20.30;99.90;;;;;;5076273;28;20443;-87
2021/07/26 00:51:54;;;;;;;23.43;20.93;;;20.20;99.90;;;;;;5070341;28;20404;-86
2021/07/26 00:54:24;;;;;;;31.23;25.60;;;20.30;99.90;;;;;;5076347;28;20469;-86
2021/07/26 00:56:54;;;;;;;27.30;24.20;;;20.20;99.90;;;;;;5071703;28;20482;-87
2021/07/26 00:59:23;;;;;;;27.83;22.70;;;20.20;99.90;;;;;;5067013;28;20450;-85
2021/07/26 01:01:51;;;;;;;26.70;24.00;;;20.20;99.90;;;;;;5071386;28;20413;-87
2021/07/26 01:04:19;;;;;;;28.60;25.53;;;20.20;99.90;;;;;;5067866;28;20518;-87
2021/07/26 01:06:48;;;;;;;24.63;22.03;;;20.20;99.90;;;;;;5040463;28;20911;-86
2021/07/26 01:09:18;;;;;;;26.40;23.53;;;20.20;99.90;;;;;;5039260;28;20468;-86
2021/07/26 01:11:46;;;;;;;23.57;20.10;;;20.20;99.90;;;;;;5061712;28;20439;-85
2021/07/26 01:14:16;;;;;;;24.60;21.07;;;20.30;99.90;;;;;;5078632;28;20402;-86
2021/07/26 01:16:45;;;;;;;22.70;20.30;;;20.20;99.90;;;;;;5060523;28;20457;-86
2021/07/26 01:19:13;;;;;;;23.33;20.57;;;20.20;99.90;;;;;;5058721;28;20972;-86
2021/07/26 01:21:44;;;;;;;23.87;21.27;;;20.20;99.90;;;;;;5043109;28;20413;-86
2021/07/26 01:24:13;;;;;;;25.60;22.90;;;20.20;99.90;;;;;;5059223;28;20401;-87
2021/07/26 01:26:41;;;;;;;21.90;19.60;;;20.20;99.90;;;;;;5059448;28;20454;-87
2021/07/26 01:29:11;;;;;;;25.13;22.43;;;20.20;99.90;;;;;;5058929;28;20437;-87
2021/07/26 01:31:40;;;;;;;25.93;22.90;;;20.20;99.90;;;;;;5059437;28;20407;-87
2021/07/26 01:34:08;;;;;;;23.33;20.93;;;20.20;99.90;;;;;;5057217;28;20417;-87
2021/07/26 01:36:37;;;;;;;25.00;21.77;;;20.20;99.90;;;;;;5058364;28;20422;-87
2021/07/26 01:39:06;;;;;;;29.90;21.43;;;20.20;99.90;;;;;;5058484;28;20421;-88
2021/07/26 01:41:36;;;;;;;24.97;22.20;;;20.20;99.90;;;;;;5040299;28;20789;-88
2021/07/26 01:44:10;;;;;;;25.20;22.53;;;20.20;99.90;;;;;;5041099;28;20446;-88
2021/07/26 01:47:02;;;;;;;21.53;19.33;;;20.20;99.90;;;;;;5058679;28;20414;-88
2021/07/26 01:49:59;;;;;;;26.73;23.40;;;20.10;99.90;;;;;;5040889;28;20463;-88
2021/07/26 01:52:28;;;;;;;24.67;22.07;;;20.10;99.90;;;;;;5039844;28;20431;-88
2021/07/26 01:54:58;;;;;;;25.47;22.70;;;20.00;99.90;;;;;;5040987;28;20444;-87
2021/07/26 01:57:27;;;;;;;22.67;20.33;;;20.10;99.90;;;;;;5060146;28;20510;-88
2021/07/26 01:59:56;;;;;;;24.77;22.20;;;20.00;99.90;;;;;;5042546;28;20505;-88
2021/07/26 02:02:26;;;;;;;23.23;20.83;;;20.10;99.90;;;;;;5059213;28;20414;-88
2021/07/26 02:04:58;;;;;;;24.37;21.77;;;20.00;99.90;;;;;;5060173;28;20427;-87
2021/07/26 02:07:26;;;;;;;24.70;21.10;;;20.00;99.90;;;;;;5058368;28;20486;-88
2021/07/26 02:09:55;;;;;;;23.07;20.23;;;20.00;99.90;;;;;;5070212;28;20760;-87
2021/07/26 02:12:25;;;;;;;23.77;21.30;;;20.00;99.90;;;;;;5075002;28;20412;-88
2021/07/26 02:14:55;;;;;;;25.90;23.30;;;20.00;99.90;;;;;;5064596;28;20390;-87
2021/07/26 02:17:23;;;;;;;24.80;21.70;;;20.10;99.90;;;;;;5056295;28;20494;-87
2021/07/26 02:19:51;;;;;;;26.60;23.70;;;20.10;99.90;;;;;;5058132;28;20378;-86
2021/07/26 02:22:20;;;;;;;26.47;22.60;;;20.10;99.90;;;;;;5052120;28;20474;-87
2021/07/26 02:24:48;;;;;;;22.77;20.37;;;20.10;99.90;;;;;;5053410;28;20511;-86
2021/07/26 02:27:17;;;;;;;22.97;20.47;;;20.20;99.90;;;;;;5059708;28;20437;-87
2021/07/26 02:29:46;;;;;;;24.63;22.03;;;20.20;99.90;;;;;;5056394;28;20465;-87
2021/07/26 02:32:14;;;;;;;23.80;21.23;;;20.20;99.90;;;;;;5056266;28;20390;-87
2021/07/26 02:34:43;;;;;;;25.27;22.30;;;20.10;99.90;;;;;;5054844;28;20489;-87
2021/07/26 02:37:11;;;;;;;23.93;21.30;;;20.00;99.90;;;;;;5037659;28;20433;-87
2021/07/26 02:39:39;;;;;;;28.43;24.33;;;20.00;99.90;;;;;;5038539;28;20423;-87
2021/07/26 02:42:08;;;;;;;25.47;22.87;;;20.00;99.90;;;;;;5056023;28;20428;-87
2021/07/26 02:44:36;;;;;;;24.37;21.87;;;19.90;99.90;;;;;;5056403;28;20426;-88
2021/07/26 02:47:06;;;;;;;24.53;22.00;;;19.90;99.90;;;;;;5055787;28;20434;-87
2021/07/26 02:49:34;;;;;;;24.20;21.57;;;19.80;99.90;;;;;;5055499;28;20413;-87
2021/07/26 02:52:02;;;;;;;27.80;24.90;;;19.80;99.90;;;;;;5056191;28;20402;-87
2021/07/26 02:54:31;;;;;;;26.73;23.60;;;19.70;99.90;;;;;;5056232;28;20430;-87
2021/07/26 02:56:59;;;;;;;27.27;24.27;;;19.70;99.90;;;;;;5038256;28;20430;-87
2021/07/26 02:59:27;;;;;;;28.40;25.50;;;19.70;99.90;;;;;;5038789;28;20422;-87
2021/07/26 03:01:57;;;;;;;27.47;24.60;;;19.70;99.90;;;;;;5056343;28;20416;-87
2021/07/26 03:04:27;;;;;;;27.63;24.73;;;19.70;99.90;;;;;;5056877;28;20787;-87
2021/07/26 03:06:58;;;;;;;27.10;23.77;;;19.70;99.90;;;;;;5055854;28;20422;-87
2021/07/26 03:09:26;;;;;;;26.57;23.80;;;19.60;99.90;;;;;;5060239;28;20434;-87
2021/07/26 03:11:54;;;;;;;25.33;22.73;;;19.60;99.90;;;;;;5061159;28;20423;-87
2021/07/26 03:14:23;;;;;;;27.83;24.93;;;19.70;99.90;;;;;;5056596;28;20439;-87
2021/07/26 03:16:54;;;;;;;26.87;23.90;;;19.70;99.90;;;;;;5037574;28;20818;-87
2021/07/26 03:19:24;;;;;;;26.87;24.20;;;19.60;99.90;;;;;;5037687;28;20413;-87
2021/07/26 03:22:41;;;;;;;26.40;23.60;;;19.70;99.90;;;;;;5037991;28;20472;-86
2021/07/26 03:25:13;;;;;;;29.13;25.27;;;19.80;99.90;;;;;;4958436;28;21013;-88
2021/07/26 03:27:49;;;;;;;26.20;23.40;;;19.80;99.90;;;;;;5052922;28;20516;-88
2021/07/26 03:30:18;;;;;;;27.57;24.77;;;19.80;99.90;;;;;;5037934;28;20814;-87
2021/07/26 03:32:47;;;;;;;26.60;24.00;;;19.90;99.90;;;;;;5038139;28;20481;-88
2021/07/26 03:35:16;;;;;;;30.17;26.97;;;19.90;99.90;;;;;;5054535;28;20410;-88
2021/07/26 03:37:45;;;;;;;26.13;23.43;;;19.90;99.90;;;;;;5037451;28;20479;-87
2021/07/26 03:40:15;;;;;;;25.87;23.37;;;20.00;99.90;;;;;;5054558;28;20427;-88
2021/07/26 03:42:44;;;;;;;25.17;22.63;;;20.10;99.90;;;;;;5046350;28;20432;-87
2021/07/26 03:45:16;;;;;;;24.67;22.20;;;20.10;99.90;;;;;;5054165;28;20450;-88
2021/07/26 03:47:45;;;;;;;27.37;24.37;;;20.10;99.90;;;;;;5037747;28;20449;-87
2021/07/26 03:50:14;;;;;;;29.67;22.93;;;20.30;99.90;;;;;;5055927;28;20487;-87
2021/07/26 03:52:50;;;;;;;27.63;24.73;;;20.30;99.90;;;;;;5055804;28;20398;-88
2021/07/26 03:55:22;;;;;;;27.07;23.87;;;20.20;99.90;;;;;;5039008;28;20461;-88
2021/07/26 03:57:51;;;;;;;23.47;21.00;;;20.20;99.90;;;;;;5063709;28;20439;-87
2021/07/26 04:00:22;;;;;;;27.87;25.10;;;20.20;99.90;;;;;;5046181;28;20427;-87
2021/07/26 04:02:54;;;;;;;30.73;27.63;;;20.20;99.90;;;;;;5068636;28;20468;-88
2021/07/26 04:05:26;;;;;;;33.33;29.93;;;20.20;99.90;;;;;;5039991;28;20453;-88
2021/07/26 04:07:54;;;;;;;34.73;31.03;;;20.20;99.90;;;;;;5055118;28;20931;-87
2021/07/26 04:10:25;;;;;;;33.90;30.40;;;20.20;99.90;;;;;;5056687;28;20506;-88
2021/07/26 04:12:54;;;;;;;36.07;31.80;;;20.30;99.90;;;;;;5055718;28;20417;-87
2021/07/26 04:15:22;;;;;;;36.67;30.97;;;20.30;99.90;;;;;;5065409;28;20423;-87
2021/07/26 04:17:52;;;;;;;36.23;32.23;;;20.40;99.90;;;;;;5065015;28;20413;-87
2021/07/26 04:20:20;;;;;;;35.40;31.70;;;20.50;99.90;;;;;;5065105;28;20448;-88
2021/07/26 04:22:50;;;;;;;39.73;35.40;;;20.60;99.90;;;;;;5065991;28;20418;-88
2021/07/26 04:25:19;;;;;;;44.70;35.40;;;20.60;99.90;;;;;;5043525;28;20447;-87
2021/07/26 04:27:52;;;;;;;44.10;35.77;;;20.60;99.90;;;;;;5065163;28;20456;-87
2021/07/26 04:30:27;;;;;;;41.40;34.97;;;20.70;99.90;;;;;;5057030;28;20423;-86
2021/07/26 04:33:09;;;;;;;36.93;32.40;;;20.80;99.90;;;;;;5055671;28;20444;-88
2021/07/26 04:35:49;;;;;;;45.13;35.63;;;20.90;99.90;;;;;;5056102;28;20488;-87
2021/07/26 04:41:34;;;;;;;42.93;33.43;;;21.10;99.90;;;;;;5075675;28;20415;-88
2021/07/26 04:44:05;;;;;;;38.03;33.50;;;21.20;99.90;;;;;;5058490;28;20425;-87
2021/07/26 04:46:34;;;;;;;39.13;33.10;;;21.40;99.90;;;;;;5057647;28;20446;-88
2021/07/26 04:49:02;;;;;;;35.73;31.40;;;21.50;99.90;;;;;;5075065;28;20421;-88
2021/07/26 04:51:34;;;;;;;33.60;29.93;;;21.60;99.90;;;;;;5053601;28;20484;-89
2021/07/26 04:54:07;;;;;;;34.40;28.23;;;21.50;99.90;;;;;;5060564;28;20496;-89
2021/07/26 04:56:35;;;;;;;31.43;27.97;;;21.40;99.90;;;;;;5057217;28;20450;-88
2021/07/26 04:59:05;;;;;;;35.00;28.13;;;21.50;99.90;;;;;;5055772;28;20826;-88
2021/07/26 05:01:34;;;;;;;36.00;28.20;;;21.60;99.90;;;;;;5054245;28;20436;-88
2021/07/26 05:04:02;;;;;;;33.20;28.90;;;21.70;99.90;;;;;;5055094;28;20416;-89
2021/07/26 05:06:31;;;;;;;28.67;25.50;;;21.70;99.90;;;;;;5054463;28;20441;-88
2021/07/26 05:09:04;;;;;;;30.60;27.30;;;21.80;99.90;;;;;;5073980;23;20995;-83
2021/07/26 05:11:32;;;;;;;27.50;24.57;;;22.00;99.90;;;;;;5077455;28;20458;-82
2021/07/26 05:14:00;;;;;;;27.53;24.63;;;22.20;99.90;;;;;;5078347;28;20388;-82
2021/07/26 05:16:30;;;;;;;31.27;27.80;;;22.50;99.90;;;;;;5077281;28;20407;-83
2021/07/26 05:18:58;;;;;;;27.30;24.57;;;22.70;99.90;;;;;;5077922;28;20435;-82
2021/07/26 05:21:26;;;;;;;24.93;21.90;;;23.20;99.90;;;;;;5060370;28;20404;-82
2021/07/26 05:23:58;;;;;;;24.23;21.67;;;24.10;1.00;;;;;;5079355;28;20443;-84
2021/07/26 05:26:26;;;;;;;25.80;23.40;;;25.00;99.90;;;;;;5071793;28;20486;-82
2021/07/26 05:28:54;;;;;;;24.40;21.97;;;25.60;99.90;;;;;;5078593;28;20434;-81
2021/07/26 05:31:22;;;;;;;23.43;21.23;;;25.80;99.90;;;;;;5077866;28;20432;-83
2021/07/26 05:33:52;;;;;;;23.93;21.07;;;26.30;99.90;;;;;;5077467;28;20492;-82
2021/07/26 05:36:23;;;;;;;22.87;20.63;;;26.80;99.90;;;;;;5076633;28;20460;-82
2021/07/26 05:38:52;;;;;;;21.33;19.40;;;26.80;99.90;;;;;;5078210;28;20442;-84
2021/07/26 05:41:20;;;;;;;22.50;20.30;;;26.40;99.90;;;;;;5077507;28;20413;-83
2021/07/26 05:43:48;;;;;;;22.70;20.70;;;26.20;99.90;;;;;;5077832;28;20461;-85
2021/07/26 05:46:16;;;;;;;22.70;20.27;;;26.00;99.90;;;;;;5078539;28;20528;-83
2021/07/26 05:48:44;;;;;;;20.07;18.17;;;25.90;99.90;;;;;;5074847;28;20447;-85
2021/07/26 05:51:17;;;;;;;23.47;21.37;;;25.70;99.90;;;;;;5063479;28;20459;-85
2021/07/26 05:53:45;;;;;;;22.37;20.17;;;25.60;99.90;;;;;;5068217;28;20397;-85
2021/07/26 05:56:13;;;;;;;21.70;19.47;;;25.40;99.90;;;;;;5076931;28;20443;-85
2021/07/26 05:58:44;;;;;;;22.53;20.40;;;25.30;99.90;;;;;;5063016;28;20454;-83
2021/07/26 06:01:25;;;;;;;19.70;17.63;;;25.10;99.90;;;;;;5074886;28;20496;-83
2021/07/26 06:03:53;;;;;;;20.93;18.67;;;25.10;99.90;;;;;;5076992;28;20443;-85
2021/07/26 06:06:23;;;;;;;21.80;18.80;;;24.90;99.90;;;;;;5075856;28;20514;-84
2021/07/26 06:08:51;;;;;;;21.97;19.60;;;24.80;1.00;;;;;;5076886;28;20878;-83
2021/07/26 06:11:19;;;;;;;23.90;21.43;;;24.50;1.00;;;;;;5085768;28;20538;-83
2021/07/26 06:13:48;;;;;;;21.87;19.73;;;24.40;94.90;;;;;;5064320;28;20529;-82
2021/07/26 06:16:18;;;;;;;22.13;19.93;;;24.10;1.00;;;;;;5076911;28;20691;-81
2021/07/26 06:18:47;;;;;;;21.63;19.27;;;23.80;1.00;;;;;;5083672;28;20451;-82
2021/07/26 06:21:15;;;;;;;21.10;19.00;;;24.00;19.00;;;;;;5085136;28;20428;-83
2021/07/26 06:23:44;;;;;;;19.80;17.90;;;24.20;1.00;;;;;;5083623;28;20419;-81
2021/07/26 06:26:12;;;;;;;20.63;18.40;;;24.20;1.00;;;;;;5076867;28;20401;-82
2021/07/26 06:28:40;;;;;;;17.60;15.80;;;24.30;1.00;;;;;;5080467;28;20424;-82
2021/07/26 06:31:10;;;;;;;21.27;19.17;;;24.40;1.00;;;;;;5078006;28;20474;-83
2021/07/26 06:33:38;;;;;;;25.93;22.57;;;24.50;99.90;;;;;;5059695;28;20479;-81
2021/07/26 06:36:07;;;;;;;24.73;22.40;;;24.50;1.00;;;;;;5086498;28;20431;-80
2021/07/26 06:38:36;;;;;;;25.10;22.60;;;24.70;1.00;;;;;;5081066;28;20463;-82
2021/07/26 06:41:07;;;;;;;27.73;22.30;;;25.00;99.90;;;;;;5083401;28;20403;-82
2021/07/26 06:43:35;;;;;;;24.00;21.40;;;24.90;99.90;;;;;;5082928;28;20498;-82
2021/07/26 06:46:06;;;;;;;20.53;18.60;;;25.30;99.90;;;;;;5064400;28;20390;-82
2021/07/26 06:48:34;;;;;;;22.47;20.20;;;25.40;99.90;;;;;;5090030;28;20443;-82
2021/07/26 06:51:04;;;;;;;20.17;18.20;;;25.60;99.90;;;;;;5087336;28;20416;-81
2021/07/26 06:53:33;;;;;;;21.53;19.27;;;25.60;99.90;;;;;;5079610;28;20510;-83
2021/07/26 06:56:06;;;;;;;20.43;18.70;;;25.70;99.90;;;;;;5086355;28;20411;-83
2021/07/26 06:58:34;;;;;;;21.70;18.80;;;25.70;99.90;;;;;;5064128;28;20468;-81
2021/07/26 07:01:04;;;;;;;21.73;19.50;;;25.80;99.90;;;;;;5081596;28;20427;-80
2021/07/26 07:03:33;;;;;;;19.10;17.20;;;25.80;99.90;;;;;;5079075;28;20434;-82
2021/07/26 07:06:02;;;;;;;18.57;16.77;;;25.80;99.90;;;;;;5069441;28;20459;-82
2021/07/26 07:08:31;;;;;;;20.73;18.73;;;26.10;99.90;;;;;;5078724;28;20462;-80
2021/07/26 07:11:06;;;;;;;20.07;18.07;;;26.20;99.90;;;;;;5083438;28;20956;-79
2021/07/26 07:13:35;;;;;;;23.13;20.70;;;26.20;99.90;;;;;;5080879;28;20467;-81
2021/07/26 07:16:07;;;;;;;23.90;21.53;;;26.10;99.90;;;;;;5054012;28;20539;-80
2021/07/26 07:18:36;;;;;;;26.33;20.00;;;26.10;99.90;;;;;;5050027;28;20448;-82
2021/07/26 07:21:05;;;;;;;19.20;17.10;;;26.10;99.90;;;;;;5042874;28;20420;-81
2021/07/26 07:23:33;;;;;;;19.50;17.50;;;26.10;99.90;;;;;;5049677;28;20429;-81
2021/07/26 07:26:01;;;;;;;20.30;17.77;;;26.20;99.90;;;;;;5066857;28;20430;-80
2021/07/26 07:28:31;;;;;;;20.60;18.17;;;26.20;99.90;;;;;;5081007;28;20450;-81
2021/07/26 07:30:59;;;;;;;21.40;18.00;;;26.30;99.90;;;;;;5082031;28;20464;-80
2021/07/26 07:33:27;;;;;;;22.60;18.67;;;26.40;99.90;;;;;;5059219;28;20466;-80
2021/07/26 07:35:55;;;;;;;19.83;17.83;;;26.40;99.90;;;;;;5070466;28;20434;-82
2021/07/26 07:38:23;;;;;;;20.87;18.70;;;26.60;99.90;;;;;;5066796;28;20473;-80
2021/07/26 07:40:51;;;;;;;20.47;18.47;;;26.60;99.90;;;;;;5066558;28;20425;-81
2021/07/26 07:43:20;;;;;;;18.30;16.60;;;26.60;99.90;;;;;;5079810;28;20410;-81
2021/07/26 07:45:49;;;;;;;18.90;16.27;;;26.80;99.90;;;;;;5065667;28;20439;-80
2021/07/26 07:48:18;;;;;;;17.77;15.97;;;27.10;99.90;;;;;;5062889;28;20449;-80
2021/07/26 07:50:46;;;;;;;18.30;16.50;;;27.40;99.90;;;;;;5060267;28;20429;-80
2021/07/26 07:53:16;;;;;;;18.13;16.33;;;27.30;99.90;;;;;;5059274;28;20566;-81
2021/07/26 07:55:44;;;;;;;15.00;13.50;;;27.40;99.90;;;;;;5071768;28;20446;-81
2021/07/26 07:58:12;;;;;;;16.47;14.77;;;27.80;99.90;;;;;;5080574;28;20449;-82
2021/07/26 08:00:40;;;;;;;15.27;13.67;;;28.10;99.90;;;;;;5081100;28;20426;-82
2021/07/26 08:03:10;;;;;;;17.67;15.70;;;28.30;99.90;;;;;;5079878;28;20431;-82
2021/07/26 08:05:39;;;;;;;13.87;12.67;;;28.40;99.90;;;;;;5041016;28;20926;-82
2021/07/26 08:08:07;;;;;;;11.97;10.73;;;28.70;99.90;;;;;;5041027;28;20466;-82
2021/07/26 08:10:36;;;;;;;12.50;11.40;;;28.70;99.80;;;;;;5039975;28;20442;-79
2021/07/26 08:13:04;;;;;;;11.83;10.73;;;28.70;92.60;;;;;;5024289;28;20994;-82
2021/07/26 08:15:32;;;;;;;12.77;11.37;;;28.70;87.70;;;;;;5076921;28;20419;-81
2021/07/26 08:18:02;;;;;;;10.93;9.90;;;28.60;87.00;;;;;;5063741;28;20447;-81
2021/07/26 08:20:32;;;;;;;10.73;9.73;;;28.40;83.20;;;;;;5064038;28;20451;-82
2021/07/26 08:23:00;;;;;;;11.70;10.20;;;28.50;78.30;;;;;;5064228;28;20428;-81
2021/07/26 08:25:29;;;;;;;11.10;9.90;;;28.30;75.60;;;;;;5064295;28;20992;-81
2021/07/26 08:27:59;;;;;;;12.00;10.80;;;28.10;74.20;;;;;;5067835;28;20455;-83
2021/07/26 08:30:28;;;;;;;12.47;10.60;;;28.00;79.80;;;;;;5064080;28;20420;-82
2021/07/26 08:33:01;;;;;;;10.60;9.60;;;27.70;84.00;;;;;;5079626;28;20508;-82
2021/07/26 08:35:31;;;;;;;12.40;11.20;;;27.40;79.50;;;;;;5065502;28;20426;-81
2021/07/26 08:37:59;;;;;;;11.47;10.43;;;27.50;84.70;;;;;;5067439;28;20451;-80
2021/07/26 08:40:29;;;;;;;12.07;10.20;;;27.60;71.50;;;;;;5068896;28;20382;-84
2021/07/26 08:43:03;;;;;;;10.90;9.80;;;27.80;69.00;;;;;;5071207;28;20411;-83
2021/07/26 08:45:32;;;;;;;10.53;9.30;;;27.90;62.30;;;;;;5082889;28;20406;-82
2021/07/26 08:48:04;;;;;;;11.17;10.13;;;27.80;60.10;;;;;;5085288;28;20417;-82
2021/07/26 08:50:35;;;;;;;11.07;10.07;;;28.00;58.50;;;;;;5071936;28;20412;-80
2021/07/26 08:53:05;;;;;;;11.70;10.50;;;27.90;57.30;;;;;;5063246;28;20455;-81
2021/07/26 08:55:34;;;;;;;10.13;9.20;;;27.80;58.90;;;;;;5063299;28;20489;-82
2021/07/26 08:58:04;;;;;;;12.27;11.07;;;28.20;57.40;;;;;;5076062;28;20511;-82
2021/07/26 09:00:33;;;;;;;11.83;10.73;;;28.80;52.30;;;;;;5087349;28;20463;-81
2021/07/26 09:03:03;;;;;;;11.33;10.23;;;29.30;46.00;;;;;;5087487;28;20413;-81
2021/07/26 09:05:31;;;;;;;14.67;11.10;;;29.50;43.30;;;;;;5069976;28;20439;-81
2021/07/26 09:08:02;;;;;;;12.37;11.17;;;29.60;37.60;;;;;;5076123;28;20473;-81
2021/07/26 09:10:33;;;;;;;12.23;11.10;;;29.50;38.00;;;;;;5083681;28;20423;-82
2021/07/26 09:13:02;;;;;;;11.70;10.50;;;29.40;36.50;;;;;;5060729;28;20890;-83
2021/07/26 09:15:36;;;;;;;10.03;9.03;;;29.00;33.60;;;;;;5060660;28;20522;-84
2021/07/26 09:18:06;;;;;;;11.10;10.00;;;29.00;31.90;;;;;;5063873;28;20516;-84
2021/07/26 09:20:36;;;;;;;10.17;9.17;;;29.10;31.20;;;;;;5061900;28;20423;-83
2021/07/26 09:27:13;;;;;;;11.67;10.57;;;28.40;31.70;;;;;;5075954;28;20434;-83
2021/07/26 09:29:41;;;;;;;11.90;10.70;;;27.60;37.70;;;;;;5083364;28;20434;-83
2021/07/26 09:32:40;;;;;;;;;;;;;;;;;;;;;
2021/07/26 09:35:22;;;;;;;12.00;10.90;;;27.40;46.10;;;;;;5066636;28;20491;-83
2021/07/26 09:38:01;;;;;;;14.30;12.13;;;27.10;41.70;;;;;;5062604;28;20449;-82
2021/07/26 09:40:33;;;;;;;12.03;10.90;;;27.00;45.30;;;;;;5065117;28;20502;-82
2021/07/26 09:43:19;;;;;;;12.13;10.93;;;27.00;48.00;;;;;;5063279;28;20403;-82
2021/07/26 09:45:49;;;;;;;17.00;13.30;;;27.50;48.00;;;;;;5043081;28;20415;-82
2021/07/26 09:48:18;;;;;;;13.00;11.30;;;28.00;41.20;;;;;;5041423;28;20455;-83
2021/07/26 09:50:47;;;;;;;11.97;10.77;;;28.10;39.80;;;;;;5023901;28;20923;-83
2021/07/26 09:53:17;;;;;;;12.30;11.10;;;28.30;37.40;;;;;;5053485;28;20426;-81
2021/07/26 09:55:48;;;;;;;12.10;10.80;;;28.40;37.30;;;;;;5064076;28;20416;-83
2021/07/26 09:58:19;;;;;;;11.80;10.70;;;28.20;35.20;;;;;;5065001;28;20431;-83
2021/07/26 10:00:47;;;;;;;9.37;8.47;;;28.20;37.50;;;;;;5081287;28;20770;-82
2021/07/26 10:03:16;;;;;;;10.17;9.23;;;28.00;30.40;;;;;;5081263;28;20432;-82
2021/07/26 10:05:45;;;;;;;10.30;9.40;;;27.80;34.80;;;;;;5053086;28;20434;-83
2021/07/26 10:08:13;;;;;;;11.00;9.90;;;27.90;37.60;;;;;;5066295;28;21083;-83
2021/07/26 10:10:41;;;;;;;9.47;8.57;;;28.10;34.10;;;;;;5058028;28;20427;-83
2021/07/26 10:13:11;;;;;;;9.47;7.90;;;28.20;29.70;;;;;;5057292;28;20439;-83
2021/07/26 10:15:39;;;;;;;8.60;7.80;;;28.20;23.80;;;;;;5067481;28;20427;-82
2021/07/26 10:18:08;;;;;;;11.97;9.40;;;28.30;24.30;;;;;;5075942;28;20447;-82
2021/07/26 10:20:40;;;;;;;8.40;7.53;;;28.40;23.30;;;;;;5079700;28;20604;-83
2021/07/26 10:26:10;;;;;;;7.67;6.73;;;28.90;18.10;;;;;;5073774;28;20422;-85
2021/07/26 10:28:44;;;;;;;7.73;6.93;;;29.00;16.20;;;;;;5086695;28;20507;-85
2021/07/26 10:31:35;;;;;;;7.67;6.97;;;29.10;10.70;;;;;;5059085;28;20421;-83
2021/07/26 10:34:06;;;;;;;8.13;7.40;;;29.20;8.80;;;;;;5068042;28;20475;-84
2021/07/26 10:36:56;;;;;;;8.07;7.20;;;29.20;8.70;;;;;;5061723;28;20425;-84
2021/07/26 10:39:27;;;;;;;8.80;8.00;;;29.20;9.80;;;;;;5020203;28;20992;-83
2021/07/26 10:42:02;;;;;;;8.10;7.30;;;29.20;8.80;;;;;;5039141;28;20880;-81
2021/07/26 10:44:45;;;;;;;8.57;7.67;;;29.20;6.70;;;;;;5051298;28;20441;-83
2021/07/26 10:47:20;;;;;;;8.37;7.60;;;29.20;6.00;;;;;;5081162;28;20939;-84
2021/07/26 10:50:11;;;;;;;8.80;7.50;;;29.40;5.60;;;;;;5077654;28;20443;-83
2021/07/26 10:52:50;;;;;;;9.13;8.23;;;29.50;5.40;;;;;;5061822;28;20940;-83
2021/07/26 10:55:58;;;;;;;8.30;7.50;;;29.40;4.80;;;;;;5067953;28;20500;-84
2021/07/26 10:59:03;;;;;;;8.90;8.00;;;29.60;3.60;;;;;;5062164;28;20900;-84
2021/07/26 11:02:02;;;;;;;8.37;7.67;;;29.60;1.00;;;;;;5071662;28;20435;-83
2021/07/26 11:04:42;;;;;;;9.67;8.77;;;29.60;1.30;;;;;;5061282;28;20436;-82
2021/07/26 11:07:26;;;;;;;9.10;7.93;;;29.40;1.00;;;;;;5074754;28;20937;-85
2021/07/26 11:09:55;;;;;;;7.60;6.90;;;29.50;1.00;;;;;;5095887;23;20563;-87
2021/07/26 11:12:52;;;;;;;8.50;7.70;;;29.50;1.00;;;;;;5062928;28;20490;-86
2021/07/26 11:15:22;;;;;;;7.97;7.23;;;29.50;1.00;;;;;;5041689;28;20476;-86
2021/07/26 11:18:28;;;;;;;8.50;7.70;;;29.70;1.00;;;;;;5050334;28;20566;-86
2021/07/26 11:21:13;;;;;;;11.30;8.10;;;29.50;1.00;;;;;;5056348;28;20423;-88
2021/07/26 11:23:52;;;;;;;9.17;8.30;;;29.90;1.00;;;;;;5038206;28;20483;-89
2021/07/26 11:26:24;;;;;;;9.17;7.83;;;30.20;1.00;;;;;;5050633;28;21009;-88
2021/07/26 11:28:55;;;;;;;8.57;7.50;;;30.40;1.00;;;;;;5056329;28;20453;-88
2021/07/26 11:31:25;;;;;;;7.67;7.07;;;30.50;1.00;;;;;;5055806;28;20426;-88
2021/07/26 11:33:54;;;;;;;6.47;5.87;;;30.90;1.00;;;;;;5067878;28;20432;-88
2021/07/26 11:36:24;;;;;;;8.33;7.50;;;31.10;1.00;;;;;;5055148;28;20491;-88
2021/07/26 11:39:06;;;;;;;8.10;6.43;;;31.20;1.00;;;;;;5061962;28;20451;-87
2021/07/26 11:41:35;;;;;;;7.63;6.93;;;31.20;1.00;;;;;;5056382;28;21168;-89
2021/07/26 11:44:04;;;;;;;8.50;7.70;;;31.50;1.00;;;;;;5056125;28;20430;-87
2021/07/26 11:46:32;;;;;;;8.33;7.60;;;31.50;1.00;;;;;;5074148;28;20509;-89
2021/07/26 11:49:01;;;;;;;7.43;6.73;;;31.60;1.00;;;;;;5056758;28;20531;-87
2021/07/26 11:51:33;;;;;;;6.87;6.27;;;31.70;1.00;;;;;;5057880;28;20839;-86
2021/07/26 11:54:03;;;;;;;8.20;7.37;;;31.80;1.00;;;;;;5060026;28;20418;-86
2021/07/26 11:56:32;;;;;;;7.00;6.30;;;32.00;1.00;;;;;;5088430;28;20462;-87
2021/07/26 11:59:17;;;;;;;7.23;6.53;;;32.00;1.00;;;;;;5067303;28;20449;-87
2021/07/26 12:01:49;;;;;;;7.60;6.93;;;31.60;1.00;;;;;;5054802;28;20491;-87
2021/07/26 12:04:18;;;;;;;7.47;6.87;;;31.00;1.00;;;;;;5058103;28;20812;-86
2021/07/26 12:07:00;;;;;;;7.83;7.13;;;30.90;1.00;;;;;;5058088;28;20452;-88
2021/07/26 12:09:29;;;;;;;8.20;7.40;;;31.00;1.00;;;;;;5056296;28;20480;-85
2021/07/26 12:12:10;;;;;;;8.53;7.73;;;30.60;1.00;;;;;;5067513;28;20469;-88
2021/07/26 12:14:39;;;;;;;8.43;7.63;;;30.10;1.00;;;;;;5072800;28;20451;-86
2021/07/26 12:17:09;;;;;;;8.13;7.37;;;29.30;1.00;;;;;;5067956;28;20430;-86
2021/07/26 12:19:40;;;;;;;11.07;7.83;;;29.10;1.00;;;;;;5055821;28;20482;-86
2021/07/26 12:22:24;;;;;;;9.63;8.63;;;29.00;1.00;;;;;;5072122;28;20427;-86
2021/07/26 12:25:19;;;;;;;7.80;7.07;;;29.00;1.00;;;;;;5055637;28;20448;-87
2021/07/26 12:28:01;;;;;;;7.83;7.13;;;29.00;1.00;;;;;;5044459;28;20390;-88
2021/07/26 12:30:36;;;;;;;10.70;8.33;;;29.00;1.00;;;;;;5057591;28;20494;-91
2021/07/26 12:33:05;;;;;;;7.37;6.50;;;28.70;1.00;;;;;;5058096;28;20426;-88
2021/07/26 12:35:34;;;;;;;9.27;8.47;;;28.50;14.30;;;;;;5074323;28;20468;-87
2021/07/26 12:38:09;;;;;;;8.20;7.40;;;28.50;25.40;;;;;;5056030;28;20769;-87
2021/07/26 12:40:39;;;;;;;9.63;8.63;;;28.30;41.80;;;;;;5055553;28;20394;-88
2021/07/26 12:43:09;;;;;;;12.00;9.40;;;28.00;55.90;;;;;;5056411;28;20999;-87
2021/07/26 12:45:38;;;;;;;8.97;7.97;;;27.90;93.30;;;;;;5049028;28;20419;-88
2021/07/26 12:48:14;;;;;;;10.57;7.87;;;27.90;99.90;;;;;;5055472;28;20475;-87
2021/07/26 12:50:43;;;;;;;10.23;8.77;;;28.00;99.90;;;;;;5056067;28;20529;-88
2021/07/26 12:53:13;;;;;;;9.27;8.47;;;28.20;99.90;;;;;;5056359;28;20423;-87
2021/07/26 12:55:43;;;;;;;7.97;7.27;;;28.30;61.00;;;;;;5055797;28;20474;-87
2021/07/26 12:58:15;;;;;;;7.53;6.77;;;28.40;49.40;;;;;;5055377;28;20447;-88
2021/07/26 13:00:44;;;;;;;8.07;7.00;;;28.80;29.10;;;;;;5063375;28;20420;-87
2021/07/26 13:03:13;;;;;;;7.13;6.47;;;28.90;21.00;;;;;;5063113;28;20427;-88
2021/07/26 13:05:42;;;;;;;7.40;6.70;;;29.10;21.80;;;;;;5054245;28;20435;-87
2021/07/26 13:08:42;;;;;;;8.17;7.07;;;29.30;15.70;;;;;;5055760;28;20505;-87